RYR6BQ GMMX-GMTT
Flight info
| Callsign | RYR6BQ |
|---|---|
| Flight time | 0h 58m |
| Altitude | 32000 |
| Route | MABAP UR722 SAK UG5 ROMSO/N0341F180 M143 TNR N726 NARMI UN726 TTN |
| Aircraft | B738/M-SDE2E3FGHIRWXY/LB1 |
Departure
| Time | 2026-04-30 10:01 |
|---|---|
| Airport | Marrakesh Menara Airport (GMMX) |
Arrival
| Time | 2026-04-30 10:59 |
|---|---|
| Airport | Tangier Ibn Battuta Airport (GMTT) |
| Time | Latitude | Longitude | Altitude | Speed | Heading |
|---|---|---|---|---|---|
| 2026-04-30 09:24 | 31.60185 | -8.02297 | 1534 ft | 0 kts | 274° |
| 2026-04-30 09:49 | 31.60184 | -8.02283 | 1531 ft | 4 kts | 277° |
| 2026-04-30 09:49 | 31.60178 | -8.02252 | 1531 ft | 4 kts | 290° |
| 2026-04-30 09:49 | 31.60171 | -8.02233 | 1534 ft | 4 kts | 306° |
| 2026-04-30 09:49 | 31.60153 | -8.02215 | 1536 ft | 4 kts | 356° |
| 2026-04-30 09:50 | 31.60143 | -8.02215 | 1535 ft | 1 kts | 6° |
| 2026-04-30 09:55 | 31.60144 | -8.02215 | 1540 ft | 1 kts | 6° |
| 2026-04-30 09:55 | 31.60211 | -8.02208 | 1538 ft | 18 kts | 6° |
| 2026-04-30 09:56 | 31.60338 | -8.02192 | 1540 ft | 14 kts | 6° |
| 2026-04-30 09:56 | 31.60395 | -8.02261 | 1539 ft | 13 kts | 279° |
| 2026-04-30 09:56 | 31.60406 | -8.02373 | 1537 ft | 15 kts | 277° |
| 2026-04-30 09:56 | 31.60419 | -8.02525 | 1533 ft | 22 kts | 276° |
| 2026-04-30 09:57 | 31.60437 | -8.02732 | 1534 ft | 28 kts | 276° |
| 2026-04-30 09:57 | 31.60461 | -8.02982 | 1531 ft | 33 kts | 275° |
| 2026-04-30 09:57 | 31.60483 | -8.03249 | 1528 ft | 33 kts | 275° |
| 2026-04-30 09:57 | 31.60506 | -8.03513 | 1524 ft | 33 kts | 276° |
| 2026-04-30 09:58 | 31.60528 | -8.03773 | 1518 ft | 31 kts | 275° |
| 2026-04-30 09:58 | 31.60549 | -8.04019 | 1518 ft | 29 kts | 273° |
| 2026-04-30 09:58 | 31.60568 | -8.04251 | 1516 ft | 28 kts | 278° |
| 2026-04-30 09:58 | 31.60590 | -8.04469 | 1513 ft | 26 kts | 276° |
| 2026-04-30 09:59 | 31.60628 | -8.04910 | 1508 ft | 26 kts | 276° |
| 2026-04-30 09:59 | 31.60657 | -8.05211 | 1504 ft | 10 kts | 289° |
| 2026-04-30 10:00 | 31.60781 | -8.05236 | 1503 ft | 11 kts | 19° |
| 2026-04-30 10:00 | 31.60823 | -8.05167 | 1503 ft | 11 kts | 85° |
| 2026-04-30 10:01 | 31.60738 | -8.04183 | 1516 ft | 124 kts | 96° |
| 2026-04-30 10:01 | 31.60636 | -8.02963 | 1590 ft | 171 kts | 95° |
| 2026-04-30 10:01 | 31.60474 | -8.01541 | 2208 ft | 177 kts | 99° |
| 2026-04-30 10:02 | 31.59586 | -7.98677 | 3646 ft | 190 kts | 114° |
| 2026-04-30 10:02 | 31.59011 | -7.97277 | 4493 ft | 190 kts | 115° |
| 2026-04-30 10:02 | 31.58428 | -7.95832 | 5054 ft | 207 kts | 115° |
| 2026-04-30 10:02 | 31.57796 | -7.94203 | 5244 ft | 232 kts | 114° |
| 2026-04-30 10:03 | 31.57128 | -7.92431 | 5619 ft | 247 kts | 114° |
| 2026-04-30 10:03 | 31.56489 | -7.90531 | 6257 ft | 254 kts | 102° |
| 2026-04-30 10:03 | 31.56551 | -7.88477 | 7075 ft | 256 kts | 75° |
| 2026-04-30 10:03 | 31.57346 | -7.86594 | 7809 ft | 263 kts | 52° |
| 2026-04-30 10:04 | 31.58742 | -7.85185 | 8520 ft | 271 kts | 27° |
| 2026-04-30 10:04 | 31.60558 | -7.84578 | 9225 ft | 277 kts | 1° |
| 2026-04-30 10:04 | 31.62443 | -7.85000 | 9923 ft | 280 kts | 331° |
| 2026-04-30 10:04 | 31.63995 | -7.86339 | 10656 ft | 277 kts | 310° |
| 2026-04-30 10:05 | 31.65218 | -7.88068 | 11465 ft | 275 kts | 305° |
| 2026-04-30 10:05 | 31.66374 | -7.89867 | 12226 ft | 277 kts | 304° |
| 2026-04-30 10:05 | 31.67517 | -7.91689 | 13002 ft | 278 kts | 304° |
| 2026-04-30 10:05 | 31.68662 | -7.93526 | 13776 ft | 280 kts | 304° |
| 2026-04-30 10:06 | 31.69812 | -7.95377 | 14473 ft | 281 kts | 304° |
| 2026-04-30 10:06 | 31.70969 | -7.97238 | 15173 ft | 283 kts | 304° |
| 2026-04-30 10:06 | 31.72131 | -7.99107 | 15869 ft | 284 kts | 304° |
| 2026-04-30 10:06 | 31.73300 | -8.00988 | 16559 ft | 286 kts | 304° |
| 2026-04-30 10:07 | 31.74477 | -8.02881 | 17253 ft | 288 kts | 304° |
| 2026-04-30 10:07 | 31.75662 | -8.04788 | 17956 ft | 290 kts | 304° |
| 2026-04-30 10:07 | 31.76858 | -8.06713 | 18604 ft | 292 kts | 304° |
| 2026-04-30 10:07 | 31.78063 | -8.08653 | 19152 ft | 296 kts | 304° |
| 2026-04-30 10:08 | 31.79283 | -8.10619 | 19698 ft | 300 kts | 303° |
| 2026-04-30 10:08 | 31.80517 | -8.12609 | 20251 ft | 303 kts | 303° |
| 2026-04-30 10:08 | 31.81898 | -8.14502 | 20767 ft | 312 kts | 320° |
| 2026-04-30 10:08 | 31.83833 | -8.15689 | 21060 ft | 330 kts | 342° |
| 2026-04-30 10:09 | 31.86172 | -8.16156 | 21200 ft | 350 kts | 350° |
| 2026-04-30 10:09 | 31.88657 | -8.16487 | 21319 ft | 368 kts | 351° |
| 2026-04-30 10:09 | 31.91262 | -8.16809 | 21439 ft | 385 kts | 351° |
| 2026-04-30 10:09 | 31.93979 | -8.17153 | 21580 ft | 400 kts | 351° |
| 2026-04-30 10:10 | 31.96774 | -8.17521 | 21939 ft | 408 kts | 351° |
| 2026-04-30 10:10 | 31.99602 | -8.17905 | 22460 ft | 411 kts | 351° |
| 2026-04-30 10:10 | 32.02450 | -8.18300 | 22986 ft | 414 kts | 351° |
| 2026-04-30 10:10 | 32.05321 | -8.18703 | 23477 ft | 418 kts | 351° |
| 2026-04-30 10:11 | 32.08228 | -8.19113 | 23890 ft | 422 kts | 351° |
| 2026-04-30 10:11 | 32.11154 | -8.19524 | 24305 ft | 425 kts | 351° |
| 2026-04-30 10:11 | 32.14128 | -8.19624 | 24681 ft | 432 kts | 3° |
| 2026-04-30 10:11 | 32.17125 | -8.19191 | 25087 ft | 436 kts | 6° |
| 2026-04-30 10:12 | 32.20136 | -8.18646 | 25459 ft | 440 kts | 7° |
| 2026-04-30 10:12 | 32.23170 | -8.18076 | 25823 ft | 444 kts | 7° |
| 2026-04-30 10:12 | 32.26233 | -8.17516 | 26189 ft | 447 kts | 7° |
| 2026-04-30 10:12 | 32.29322 | -8.16975 | 26561 ft | 451 kts | 6° |
| 2026-04-30 10:13 | 32.32444 | -8.16448 | 26923 ft | 454 kts | 6° |
| 2026-04-30 10:13 | 32.35583 | -8.15931 | 27282 ft | 457 kts | 6° |
| 2026-04-30 10:13 | 32.38754 | -8.15416 | 27538 ft | 463 kts | 6° |
| 2026-04-30 10:13 | 32.41960 | -8.14896 | 27853 ft | 467 kts | 6° |
| 2026-04-30 10:14 | 32.45183 | -8.14373 | 28273 ft | 468 kts | 6° |
| 2026-04-30 10:14 | 32.48404 | -8.13848 | 28788 ft | 467 kts | 5° |
| 2026-04-30 10:14 | 32.54833 | -8.12797 | 29712 ft | 467 kts | 5° |
| 2026-04-30 10:15 | 32.58057 | -8.12270 | 30110 ft | 468 kts | 5° |
| 2026-04-30 10:15 | 32.61247 | -8.11747 | 30489 ft | 468 kts | 5° |
| 2026-04-30 10:15 | 32.64517 | -8.11211 | 30907 ft | 468 kts | 5° |
| 2026-04-30 10:15 | 32.67745 | -8.10682 | 31229 ft | 469 kts | 5° |
| 2026-04-30 10:16 | 32.70929 | -8.10160 | 31636 ft | 468 kts | 5° |
| 2026-04-30 10:16 | 32.74143 | -8.09634 | 32038 ft | 467 kts | 5° |
| 2026-04-30 10:17 | 32.83866 | -8.08054 | 32045 ft | 466 kts | 5° |
| 2026-04-30 10:17 | 32.93429 | -8.06127 | 32056 ft | 469 kts | 17° |
| 2026-04-30 10:18 | 32.99329 | -8.02808 | 32066 ft | 471 kts | 29° |
| 2026-04-30 10:19 | 33.07914 | -7.97002 | 32059 ft | 474 kts | 29° |
| 2026-04-30 10:19 | 33.13670 | -7.93168 | 32056 ft | 474 kts | 29° |
| 2026-04-30 10:20 | 33.19442 | -7.89358 | 32056 ft | 474 kts | 28° |
| 2026-04-30 10:20 | 33.28074 | -7.83657 | 32063 ft | 472 kts | 29° |
| 2026-04-30 10:21 | 33.33809 | -7.79858 | 32067 ft | 470 kts | 29° |
| 2026-04-30 10:21 | 33.39521 | -7.76068 | 32071 ft | 469 kts | 29° |
| 2026-04-30 10:22 | 33.45222 | -7.72280 | 32061 ft | 469 kts | 28° |
| 2026-04-30 10:22 | 33.50929 | -7.68483 | 32053 ft | 470 kts | 28° |
| 2026-04-30 10:23 | 33.56704 | -7.64794 | 32050 ft | 471 kts | 26° |
| 2026-04-30 10:23 | 33.62598 | -7.61287 | 32075 ft | 477 kts | 26° |
| 2026-04-30 10:24 | 33.68535 | -7.57742 | 32013 ft | 471 kts | 26° |
| 2026-04-30 10:24 | 33.74346 | -7.54226 | 32057 ft | 470 kts | 25° |
| 2026-04-30 10:25 | 33.80172 | -7.50681 | 32076 ft | 475 kts | 26° |
| 2026-04-30 10:25 | 33.86127 | -7.47050 | 32075 ft | 478 kts | 26° |
| 2026-04-30 10:26 | 33.92032 | -7.43446 | 32075 ft | 477 kts | 26° |
| 2026-04-30 10:26 | 33.97895 | -7.39861 | 32069 ft | 470 kts | 26° |
| 2026-04-30 10:27 | 34.03736 | -7.36286 | 32094 ft | 472 kts | 25° |
| 2026-04-30 10:27 | 34.09608 | -7.32687 | 32096 ft | 474 kts | 25° |
| 2026-04-30 10:28 | 34.15503 | -7.29068 | 32096 ft | 476 kts | 25° |
| 2026-04-30 10:28 | 34.21388 | -7.25450 | 32073 ft | 467 kts | 25° |
| 2026-04-30 10:29 | 34.24255 | -7.23683 | 31890 ft | 458 kts | 25° |
| 2026-04-30 10:29 | 34.27074 | -7.21945 | 31651 ft | 452 kts | 25° |
| 2026-04-30 10:29 | 34.29864 | -7.20225 | 31270 ft | 449 kts | 25° |
| 2026-04-30 10:29 | 34.32640 | -7.18512 | 30937 ft | 446 kts | 24° |
| 2026-04-30 10:30 | 34.35384 | -7.16818 | 30802 ft | 437 kts | 24° |
| 2026-04-30 10:30 | 34.38056 | -7.15165 | 30796 ft | 429 kts | 24° |
| 2026-04-30 10:30 | 34.43448 | -7.11835 | 30820 ft | 444 kts | 24° |
| 2026-04-30 10:31 | 34.49017 | -7.08387 | 30806 ft | 450 kts | 25° |
| 2026-04-30 10:31 | 34.54573 | -7.04937 | 30808 ft | 447 kts | 25° |
| 2026-04-30 10:32 | 34.60072 | -7.01519 | 30793 ft | 441 kts | 25° |
| 2026-04-30 10:32 | 34.65516 | -6.98171 | 30749 ft | 438 kts | 24° |
| 2026-04-30 10:33 | 34.70967 | -6.94843 | 30673 ft | 437 kts | 24° |
| 2026-04-30 10:33 | 34.73663 | -6.93193 | 30505 ft | 431 kts | 24° |
| 2026-04-30 10:33 | 34.76296 | -6.91578 | 30135 ft | 430 kts | 24° |
| 2026-04-30 10:34 | 34.78966 | -6.89940 | 29645 ft | 430 kts | 25° |
| 2026-04-30 10:34 | 34.81628 | -6.88305 | 29405 ft | 423 kts | 25° |
| 2026-04-30 10:34 | 34.84220 | -6.86709 | 29255 ft | 414 kts | 25° |
| 2026-04-30 10:34 | 34.86777 | -6.85135 | 28871 ft | 411 kts | 25° |
| 2026-04-30 10:35 | 34.89327 | -6.83564 | 28359 ft | 411 kts | 25° |
| 2026-04-30 10:35 | 34.91888 | -6.81986 | 27838 ft | 413 kts | 25° |
| 2026-04-30 10:35 | 34.94442 | -6.80411 | 27508 ft | 409 kts | 25° |
| 2026-04-30 10:35 | 34.96967 | -6.78852 | 27214 ft | 405 kts | 25° |
| 2026-04-30 10:36 | 34.99466 | -6.77307 | 26899 ft | 401 kts | 25° |
| 2026-04-30 10:36 | 35.01950 | -6.75772 | 26552 ft | 399 kts | 25° |
| 2026-04-30 10:36 | 35.04422 | -6.74242 | 26209 ft | 397 kts | 25° |
| 2026-04-30 10:36 | 35.06874 | -6.72725 | 25911 ft | 393 kts | 25° |
| 2026-04-30 10:37 | 35.09293 | -6.71226 | 25693 ft | 387 kts | 25° |
| 2026-04-30 10:37 | 35.11685 | -6.69743 | 25375 ft | 385 kts | 25° |
| 2026-04-30 10:37 | 35.14068 | -6.68265 | 25003 ft | 384 kts | 25° |
| 2026-04-30 10:37 | 35.16443 | -6.66791 | 24669 ft | 382 kts | 25° |
| 2026-04-30 10:38 | 35.18805 | -6.65325 | 24372 ft | 380 kts | 26° |
| 2026-04-30 10:38 | 35.21149 | -6.63867 | 24062 ft | 377 kts | 26° |
| 2026-04-30 10:38 | 35.23480 | -6.62418 | 23757 ft | 375 kts | 26° |
| 2026-04-30 10:38 | 35.25804 | -6.60972 | 23407 ft | 373 kts | 26° |
| 2026-04-30 10:39 | 35.28107 | -6.59537 | 23056 ft | 370 kts | 26° |
| 2026-04-30 10:39 | 35.30395 | -6.58112 | 22718 ft | 368 kts | 26° |
| 2026-04-30 10:39 | 35.32666 | -6.56695 | 22387 ft | 365 kts | 26° |
| 2026-04-30 10:39 | 35.34922 | -6.55287 | 22054 ft | 363 kts | 26° |
| 2026-04-30 10:40 | 35.37162 | -6.53889 | 21728 ft | 360 kts | 26° |
| 2026-04-30 10:40 | 35.38636 | -6.52968 | 21508 ft | 359 kts | 26° |
| 2026-04-30 10:40 | 35.40859 | -6.51579 | 21185 ft | 357 kts | 26° |
| 2026-04-30 10:40 | 35.42997 | -6.50061 | 20835 ft | 355 kts | 39° |
| 2026-04-30 10:41 | 35.44592 | -6.47783 | 20484 ft | 352 kts | 62° |
| 2026-04-30 10:41 | 35.45456 | -6.45011 | 20187 ft | 346 kts | 77° |
| 2026-04-30 10:41 | 35.46021 | -6.42155 | 19896 ft | 344 kts | 79° |
| 2026-04-30 10:41 | 35.46553 | -6.39305 | 19561 ft | 343 kts | 79° |
| 2026-04-30 10:42 | 35.47081 | -6.36461 | 19237 ft | 341 kts | 79° |
| 2026-04-30 10:42 | 35.47611 | -6.33631 | 18936 ft | 339 kts | 78° |
| 2026-04-30 10:42 | 35.48144 | -6.30819 | 18650 ft | 338 kts | 78° |
| 2026-04-30 10:42 | 35.48681 | -6.28017 | 18352 ft | 336 kts | 78° |
| 2026-04-30 10:43 | 35.49217 | -6.25236 | 18018 ft | 334 kts | 78° |
| 2026-04-30 10:43 | 35.49752 | -6.22472 | 17694 ft | 332 kts | 78° |
| 2026-04-30 10:43 | 35.50284 | -6.19723 | 17363 ft | 330 kts | 78° |
| 2026-04-30 10:43 | 35.50814 | -6.16989 | 17043 ft | 329 kts | 78° |
| 2026-04-30 10:44 | 35.51340 | -6.14270 | 16726 ft | 327 kts | 78° |
| 2026-04-30 10:44 | 35.51863 | -6.11565 | 16418 ft | 325 kts | 78° |
| 2026-04-30 10:44 | 35.52383 | -6.08873 | 16097 ft | 324 kts | 78° |
| 2026-04-30 10:44 | 35.52904 | -6.06169 | 15612 ft | 328 kts | 79° |
| 2026-04-30 10:45 | 35.53432 | -6.03424 | 15141 ft | 332 kts | 79° |
| 2026-04-30 10:45 | 35.53965 | -6.00654 | 14664 ft | 335 kts | 79° |
| 2026-04-30 10:45 | 35.54502 | -5.97859 | 14209 ft | 337 kts | 79° |
| 2026-04-30 10:45 | 35.55039 | -5.95068 | 13716 ft | 335 kts | 80° |
| 2026-04-30 10:46 | 35.55571 | -5.92298 | 13190 ft | 332 kts | 80° |
| 2026-04-30 10:46 | 35.56091 | -5.89582 | 12679 ft | 330 kts | 80° |
| 2026-04-30 10:46 | 35.56613 | -5.86855 | 12177 ft | 327 kts | 79° |
| 2026-04-30 10:46 | 35.57129 | -5.84152 | 11671 ft | 324 kts | 79° |
| 2026-04-30 10:47 | 35.57639 | -5.81477 | 11193 ft | 320 kts | 79° |
| 2026-04-30 10:47 | 35.58145 | -5.78822 | 10718 ft | 318 kts | 79° |
| 2026-04-30 10:47 | 35.58646 | -5.76186 | 10228 ft | 316 kts | 79° |
| 2026-04-30 10:47 | 35.59143 | -5.73572 | 9735 ft | 313 kts | 79° |
| 2026-04-30 10:48 | 35.59636 | -5.70976 | 9224 ft | 311 kts | 79° |
| 2026-04-30 10:48 | 35.60124 | -5.68395 | 8717 ft | 309 kts | 79° |
| 2026-04-30 10:48 | 35.60615 | -5.65823 | 8205 ft | 307 kts | 78° |
| 2026-04-30 10:48 | 35.61168 | -5.63295 | 7700 ft | 305 kts | 77° |
| 2026-04-30 10:49 | 35.61721 | -5.60787 | 7220 ft | 303 kts | 77° |
| 2026-04-30 10:49 | 35.62266 | -5.58293 | 6737 ft | 301 kts | 77° |
| 2026-04-30 10:49 | 35.62803 | -5.55814 | 6257 ft | 299 kts | 77° |
| 2026-04-30 10:49 | 35.63332 | -5.53351 | 5746 ft | 297 kts | 76° |
| 2026-04-30 10:50 | 35.63852 | -5.50905 | 5252 ft | 295 kts | 77° |
| 2026-04-30 10:50 | 35.64397 | -5.48484 | 4753 ft | 293 kts | 70° |
| 2026-04-30 10:50 | 35.65496 | -5.46384 | 4234 ft | 294 kts | 43° |
| 2026-04-30 10:50 | 35.67213 | -5.45152 | 4039 ft | 282 kts | 15° |
| 2026-04-30 10:51 | 35.69093 | -5.45031 | 3944 ft | 265 kts | 346° |
| 2026-04-30 10:51 | 35.70689 | -5.45955 | 3820 ft | 247 kts | 316° |
| 2026-04-30 10:51 | 35.71616 | -5.47622 | 3743 ft | 231 kts | 285° |
| 2026-04-30 10:51 | 35.71977 | -5.49501 | 3663 ft | 222 kts | 278° |
| 2026-04-30 10:52 | 35.72121 | -5.51333 | 3591 ft | 209 kts | 269° |
| 2026-04-30 10:52 | 35.72074 | -5.53072 | 3485 ft | 199 kts | 264° |
| 2026-04-30 10:52 | 35.71982 | -5.54757 | 3385 ft | 196 kts | 264° |
| 2026-04-30 10:52 | 35.71890 | -5.56436 | 3334 ft | 197 kts | 264° |
| 2026-04-30 10:53 | 35.71760 | -5.58131 | 3224 ft | 201 kts | 261° |
| 2026-04-30 10:53 | 35.71592 | -5.59823 | 3179 ft | 197 kts | 261° |
| 2026-04-30 10:53 | 35.71423 | -5.61481 | 3180 ft | 195 kts | 261° |
| 2026-04-30 10:53 | 35.71247 | -5.63140 | 3192 ft | 197 kts | 261° |
| 2026-04-30 10:54 | 35.71076 | -5.64816 | 3196 ft | 197 kts | 261° |
| 2026-04-30 10:54 | 35.70943 | -5.66474 | 3183 ft | 192 kts | 267° |
| 2026-04-30 10:54 | 35.70988 | -5.68103 | 3191 ft | 190 kts | 272° |
| 2026-04-30 10:54 | 35.71109 | -5.69688 | 3183 ft | 181 kts | 274° |
| 2026-04-30 10:55 | 35.71240 | -5.71164 | 3114 ft | 173 kts | 274° |
| 2026-04-30 10:55 | 35.71372 | -5.72621 | 2938 ft | 170 kts | 275° |
| 2026-04-30 10:55 | 35.71501 | -5.74043 | 2716 ft | 166 kts | 275° |
| 2026-04-30 10:55 | 35.71633 | -5.75486 | 2488 ft | 168 kts | 276° |
| 2026-04-30 10:56 | 35.71762 | -5.76903 | 2262 ft | 165 kts | 277° |
| 2026-04-30 10:56 | 35.71886 | -5.78257 | 2048 ft | 159 kts | 277° |
| 2026-04-30 10:56 | 35.72008 | -5.79589 | 1829 ft | 157 kts | 279° |
| 2026-04-30 10:56 | 35.72131 | -5.80923 | 1616 ft | 158 kts | 278° |
| 2026-04-30 10:57 | 35.72248 | -5.82237 | 1479 ft | 153 kts | 277° |
| 2026-04-30 10:57 | 35.72359 | -5.83549 | 1219 ft | 155 kts | 279° |
| 2026-04-30 10:57 | 35.72495 | -5.84846 | 1033 ft | 151 kts | 279° |
| 2026-04-30 10:57 | 35.72623 | -5.86130 | 838 ft | 151 kts | 278° |
| 2026-04-30 10:58 | 35.72722 | -5.87427 | 631 ft | 151 kts | 278° |
| 2026-04-30 10:58 | 35.72840 | -5.88701 | 387 ft | 149 kts | 279° |
| 2026-04-30 10:58 | 35.72962 | -5.89945 | 203 ft | 146 kts | 279° |
| 2026-04-30 10:58 | 35.73067 | -5.91147 | 53 ft | 133 kts | 278° |
| 2026-04-30 10:59 | 35.73168 | -5.92140 | 33 ft | 96 kts | 277° |
| 2026-04-30 10:59 | 35.73227 | -5.92774 | 24 ft | 53 kts | 276° |
| 2026-04-30 10:59 | 35.73265 | -5.93170 | 17 ft | 35 kts | 276° |
| 2026-04-30 10:59 | 35.73210 | -5.93319 | 18 ft | 19 kts | 206° |
| 2026-04-30 11:00 | 35.73105 | -5.93276 | 20 ft | 17 kts | 124° |
| 2026-04-30 11:00 | 35.73081 | -5.93141 | 21 ft | 16 kts | 97° |
| 2026-04-30 11:00 | 35.73068 | -5.93008 | 22 ft | 15 kts | 97° |
| 2026-04-30 11:00 | 35.73056 | -5.92881 | 26 ft | 15 kts | 97° |
| 2026-04-30 11:01 | 35.73045 | -5.92758 | 26 ft | 14 kts | 95° |
| 2026-04-30 11:01 | 35.73036 | -5.92641 | 27 ft | 13 kts | 94° |
| 2026-04-30 11:01 | 35.73022 | -5.92505 | 29 ft | 22 kts | 98° |
| 2026-04-30 11:01 | 35.73002 | -5.92273 | 31 ft | 30 kts | 99° |
| 2026-04-30 11:02 | 35.72976 | -5.92022 | 35 ft | 28 kts | 97° |
| 2026-04-30 11:02 | 35.72957 | -5.91821 | 37 ft | 15 kts | 96° |
| 2026-04-30 11:02 | 35.72905 | -5.91723 | 39 ft | 14 kts | 159° |
| 2026-04-30 11:02 | 35.72809 | -5.91725 | 39 ft | 14 kts | 175° |
| 2026-04-30 11:03 | 35.72717 | -5.91704 | 40 ft | 13 kts | 172° |
| 2026-04-30 11:03 | 35.72608 | -5.91693 | 40 ft | 19 kts | 176° |
| 2026-04-30 11:03 | 35.72487 | -5.91669 | 40 ft | 17 kts | 153° |
| 2026-04-30 11:04 | 35.72437 | -5.91421 | 44 ft | 15 kts | 84° |
| 2026-04-30 11:04 | 35.72440 | -5.91313 | 45 ft | 10 kts | 85° |
| 2026-04-30 11:04 | 35.72491 | -5.91269 | 46 ft | 10 kts | 357° |
| 2026-04-30 11:04 | 35.72518 | -5.91272 | 46 ft | 3 kts | 355° |
| 2026-04-30 11:05 | 35.72530 | -5.91273 | 45 ft | 0 kts | 355° |